createdAt,value
2022-12-01T00:01:02.988Z,86.52
2022-12-01T00:03:33.178Z,86.68
2022-12-01T00:06:00.719Z,86.45
2022-12-01T00:08:28.750Z,86.31
2022-12-01T00:10:55.509Z,86.37
2022-12-01T00:13:22.648Z,86.68
2022-12-01T00:15:49.188Z,86.61
2022-12-01T00:18:15.641Z,87.01
2022-12-01T00:20:42.187Z,86.71
2022-12-01T00:23:08.645Z,86.46
2022-12-01T00:25:35.098Z,87.11
2022-12-01T00:28:01.628Z,87.29
2022-12-01T00:30:28.150Z,87.73
2022-12-01T00:32:54.600Z,87.54
2022-12-01T00:35:21.214Z,87.54
2022-12-01T00:37:47.743Z,87.77
2022-12-01T00:40:14.494Z,88.10
2022-12-01T00:42:41.068Z,87.71
2022-12-01T00:45:08.242Z,87.45
2022-12-01T00:47:34.735Z,87.98
2022-12-01T00:50:01.286Z,88.09
2022-12-01T00:52:27.729Z,88.35
2022-12-01T00:54:54.193Z,88.66
2022-12-01T00:57:20.689Z,88.86
2022-12-01T00:59:47.366Z,88.86
2022-12-01T01:02:14.036Z,88.88
2022-12-01T01:04:41.013Z,88.41
2022-12-01T01:07:07.471Z,88.75
2022-12-01T01:09:33.979Z,88.96
2022-12-01T01:12:00.508Z,88.71
2022-12-01T01:14:27.177Z,88.72
2022-12-01T01:16:55.209Z,88.68
2022-12-01T01:19:22.342Z,89.02
2022-12-01T01:21:48.827Z,88.71
2022-12-01T01:24:15.626Z,88.89
2022-12-01T01:26:42.061Z,88.86
2022-12-01T01:29:08.564Z,89.35
2022-12-01T01:31:35.778Z,88.93
2022-12-01T01:34:03.400Z,89.03
2022-12-01T01:36:29.887Z,89.46
2022-12-01T01:38:56.455Z,89.32
2022-12-01T01:41:23.835Z,89.47
2022-12-01T01:44:02.990Z,88.96
2022-12-01T01:46:34.427Z,89.65
2022-12-01T01:49:10.394Z,89.20
2022-12-01T01:51:42.510Z,89.61
2022-12-01T01:54:34.043Z,89.17
2022-12-01T01:57:02.159Z,89.53
2022-12-01T01:59:37.276Z,89.61
2022-12-01T02:02:07.281Z,89.25
2022-12-01T02:04:51.228Z,89.65
2022-12-01T02:07:19.326Z,89.33
2022-12-01T02:09:46.332Z,89.35
2022-12-01T02:12:33.037Z,89.23
2022-12-01T02:15:27.604Z,89.42
2022-12-01T02:18:03.244Z,89.50
2022-12-01T02:20:47.934Z,89.20
2022-12-01T02:23:33.198Z,89.60
2022-12-01T02:26:28.118Z,89.18
2022-12-01T02:29:27.272Z,89.02
2022-12-01T02:32:33.781Z,89.01
2022-12-01T02:35:25.006Z,89.16
2022-12-01T02:38:13.216Z,88.89
2022-12-01T02:40:46.824Z,89.46
2022-12-01T02:43:27.425Z,89.09
2022-12-01T02:46:34.055Z,89.08
2022-12-01T02:49:07.582Z,89.46
2022-12-01T02:51:37.642Z,88.70
2022-12-01T02:54:05.899Z,89.17
2022-12-01T02:56:32.558Z,89.11
2022-12-01T02:58:59.224Z,89.05
2022-12-01T03:01:58.723Z,89.46
2022-12-01T03:05:02.696Z,88.88
2022-12-01T03:07:47.337Z,88.91
2022-12-01T03:10:24.336Z,88.42
2022-12-01T03:13:07.497Z,88.46
2022-12-01T03:15:44.515Z,88.91
2022-12-01T03:18:36.647Z,88.93
2022-12-01T03:21:40.686Z,88.72
2022-12-01T03:24:20.431Z,87.67
2022-12-01T03:26:51.926Z,87.33
2022-12-01T03:29:25.225Z,87.00
2022-12-01T03:31:58.635Z,87.30
2022-12-01T03:34:36.382Z,87.67
2022-12-01T03:37:12.125Z,87.67
2022-12-01T03:39:41.974Z,87.64
2022-12-01T03:42:15.138Z,87.87
2022-12-01T03:44:49.769Z,87.17
2022-12-01T03:47:30.906Z,86.94
2022-12-01T03:50:00.317Z,86.64
2022-12-01T03:52:42.428Z,86.86
2022-12-01T03:55:14.266Z,86.46
2022-12-01T03:58:08.229Z,86.25
2022-12-01T04:00:36.455Z,85.85
2022-12-01T04:03:04.234Z,85.51
2022-12-01T04:05:33.375Z,85.70
2022-12-01T04:08:00.474Z,85.34
2022-12-01T04:10:27.367Z,85.81
2022-12-01T04:12:59.703Z,85.79
2022-12-01T04:15:27.327Z,85.78
2022-12-01T04:17:54.207Z,86.02
2022-12-01T04:20:21.365Z,86.13
2022-12-01T04:22:48.717Z,86.55
2022-12-01T04:25:15.297Z,86.38
2022-12-01T04:27:41.934Z,86.36
2022-12-01T04:30:08.943Z,86.26
2022-12-01T04:32:40.047Z,86.49
2022-12-01T04:35:08.769Z,86.44
2022-12-01T04:37:35.258Z,86.65
2022-12-01T04:40:04.760Z,86.67
2022-12-01T04:42:31.444Z,87.57
2022-12-01T04:44:57.951Z,87.36
2022-12-01T04:47:24.500Z,86.99
2022-12-01T04:49:52.026Z,87.09
2022-12-01T04:52:19.045Z,87.53
2022-12-01T04:54:45.491Z,87.40
2022-12-01T04:57:11.975Z,87.99
2022-12-01T04:59:39.382Z,87.78
2022-12-01T05:02:05.941Z,87.57
2022-12-01T05:04:34.048Z,87.60
2022-12-01T05:07:00.514Z,87.73
2022-12-01T05:09:27.002Z,87.42
2022-12-01T05:11:53.427Z,87.83
2022-12-01T05:14:20.330Z,87.90
2022-12-01T05:16:46.787Z,87.91
2022-12-01T05:19:32.085Z,87.95
2022-12-01T05:21:58.529Z,87.68
2022-12-01T05:24:25.045Z,87.70
2022-12-01T05:26:51.650Z,87.72
2022-12-01T05:29:18.314Z,87.59
2022-12-01T05:31:46.436Z,87.24
2022-12-01T05:34:12.975Z,87.65
2022-12-01T05:36:39.456Z,87.44
2022-12-01T05:39:06.031Z,87.66
2022-12-01T05:41:32.480Z,87.10
2022-12-01T05:43:59.081Z,87.19
2022-12-01T05:46:25.710Z,87.51
2022-12-01T05:48:52.455Z,87.28
2022-12-01T05:51:18.928Z,87.59
2022-12-01T05:53:45.819Z,87.22
2022-12-01T05:56:12.713Z,87.27
2022-12-01T05:58:39.354Z,87.69
2022-12-01T06:01:05.935Z,87.46
2022-12-01T06:03:32.428Z,87.61
2022-12-01T06:05:58.924Z,87.42
2022-12-01T06:08:25.437Z,86.99
2022-12-01T06:10:51.907Z,86.47
2022-12-01T06:13:18.396Z,86.62
2022-12-01T06:15:44.912Z,86.13
2022-12-01T06:18:11.386Z,86.70
2022-12-01T06:20:37.928Z,86.68
2022-12-01T06:23:04.412Z,86.42
2022-12-01T06:25:30.910Z,86.20
2022-12-01T06:27:58.543Z,86.09
2022-12-01T06:30:25.911Z,86.21
2022-12-01T06:32:52.508Z,86.49
2022-12-01T06:35:19.517Z,86.40
2022-12-01T06:37:46.192Z,86.69
2022-12-01T06:40:12.981Z,86.64
2022-12-01T06:42:39.499Z,86.84
2022-12-01T06:45:06.355Z,86.82
2022-12-01T06:47:32.918Z,86.99
2022-12-01T06:50:00.493Z,86.91
2022-12-01T06:52:26.995Z,86.98
2022-12-01T06:54:53.418Z,86.81
2022-12-01T06:57:20.446Z,87.11
2022-12-01T06:59:47.747Z,87.48
2022-12-01T07:02:14.972Z,87.05
2022-12-01T07:04:41.504Z,86.96
2022-12-01T07:07:08.137Z,87.08
2022-12-01T07:09:34.832Z,87.00
2022-12-01T07:12:01.531Z,87.39
2022-12-01T07:14:28.264Z,86.88
2022-12-01T07:16:55.116Z,87.30
2022-12-01T07:19:21.789Z,87.45
2022-12-01T07:21:48.295Z,86.97
2022-12-01T07:24:14.973Z,87.24
2022-12-01T07:26:41.937Z,87.20
2022-12-01T07:29:09.901Z,87.61
2022-12-01T07:31:37.703Z,87.04
2022-12-01T07:34:04.931Z,87.46
2022-12-01T07:36:31.874Z,87.59
2022-12-01T07:38:58.377Z,87.50
2022-12-01T07:41:24.984Z,86.86
2022-12-01T07:43:51.534Z,87.12
2022-12-01T07:46:24.548Z,87.38
2022-12-01T07:48:52.305Z,87.57
2022-12-01T07:51:19.571Z,87.46
2022-12-01T07:53:48.048Z,86.95
2022-12-01T07:56:15.251Z,87.12
2022-12-01T07:58:42.167Z,86.66
2022-12-01T08:01:12.384Z,86.90
2022-12-01T08:03:39.429Z,86.83
2022-12-01T08:06:07.610Z,85.68
2022-12-01T08:08:37.205Z,85.81
2022-12-01T08:11:11.076Z,86.00
2022-12-01T08:13:37.965Z,86.38
2022-12-01T08:16:09.140Z,86.17
2022-12-01T08:18:37.000Z,86.64
2022-12-01T08:21:04.541Z,86.35
2022-12-01T08:23:31.033Z,86.58
2022-12-01T08:26:02.125Z,86.02
2022-12-01T08:28:28.954Z,86.06
2022-12-01T08:30:55.843Z,86.21
2022-12-01T08:33:23.230Z,86.35
2022-12-01T08:35:49.713Z,85.88
2022-12-01T08:38:16.363Z,86.34
2022-12-01T08:40:42.782Z,86.75
2022-12-01T08:43:15.172Z,86.67
2022-12-01T08:45:49.470Z,86.67
2022-12-01T08:48:15.922Z,86.95
2022-12-01T08:50:42.467Z,86.81
2022-12-01T08:53:09.235Z,86.82
2022-12-01T08:55:38.205Z,87.35
2022-12-01T08:58:04.733Z,87.16
2022-12-01T09:00:31.187Z,86.92
2022-12-01T09:02:58.047Z,86.87
2022-12-01T09:05:24.557Z,86.71
2022-12-01T09:08:11.465Z,86.44
2022-12-01T09:10:38.053Z,86.15
2022-12-01T09:13:04.525Z,86.85
2022-12-01T09:15:31.118Z,86.49
2022-12-01T09:17:57.650Z,86.36
2022-12-01T09:20:24.088Z,86.89
2022-12-01T09:22:50.625Z,86.93
2022-12-01T09:25:17.057Z,87.05
2022-12-01T09:27:43.620Z,87.21
2022-12-01T09:30:10.522Z,86.63
2022-12-01T09:32:36.933Z,86.90
2022-12-01T09:35:03.547Z,86.61
2022-12-01T09:37:29.989Z,87.02
2022-12-01T09:39:56.398Z,86.63
2022-12-01T09:42:32.254Z,86.26
2022-12-01T09:45:02.767Z,85.96
2022-12-01T09:47:32.413Z,85.68
2022-12-01T09:50:24.028Z,85.03
2022-12-01T09:52:59.403Z,85.12
2022-12-01T09:55:26.582Z,84.71
2022-12-01T09:58:00.569Z,84.46
2022-12-01T10:00:31.824Z,84.59
2022-12-01T10:03:20.119Z,84.56
2022-12-01T10:06:18.410Z,85.33
2022-12-01T10:08:41.492Z,85.04
2022-12-01T10:11:33.252Z,85.18
2022-12-01T10:14:01.066Z,85.16
2022-12-01T10:16:35.824Z,85.23
2022-12-01T10:19:08.674Z,84.99
2022-12-01T10:21:55.227Z,84.92
2022-12-01T10:24:27.698Z,84.82
2022-12-01T10:27:24.002Z,84.33
2022-12-01T10:30:24.018Z,84.20
2022-12-01T10:33:07.121Z,84.10
2022-12-01T10:35:37.083Z,83.84
2022-12-01T10:38:14.688Z,83.86
2022-12-01T10:40:42.832Z,83.88
2022-12-01T10:43:10.717Z,83.82
2022-12-01T10:45:44.587Z,84.07
2022-12-01T10:48:23.018Z,83.91
2022-12-01T10:50:54.980Z,83.28
2022-12-01T10:53:25.727Z,83.80
2022-12-01T10:56:14.383Z,83.65
2022-12-01T10:58:43.644Z,83.19
2022-12-01T11:01:20.465Z,83.46
2022-12-01T11:03:52.430Z,83.30
2022-12-01T11:06:23.865Z,83.52
2022-12-01T11:08:57.747Z,83.47
2022-12-01T11:11:30.636Z,83.75
2022-12-01T11:14:00.123Z,84.10
2022-12-01T11:16:42.438Z,83.87
2022-12-01T11:19:26.555Z,84.14
2022-12-01T11:21:56.739Z,83.94
2022-12-01T11:24:43.099Z,84.14
2022-12-01T11:27:23.138Z,84.19
2022-12-01T11:29:52.879Z,83.96
2022-12-01T11:32:26.246Z,83.97
2022-12-01T11:34:59.956Z,83.99
2022-12-01T11:37:54.868Z,83.51
2022-12-01T11:40:51.889Z,83.82
2022-12-01T11:43:34.598Z,83.64
2022-12-01T11:46:05.573Z,83.71
2022-12-01T11:48:37.438Z,83.65
2022-12-01T11:51:06.061Z,83.12
2022-12-01T11:53:43.139Z,83.08
2022-12-01T11:56:28.992Z,83.02
2022-12-01T11:59:10.010Z,82.88
2022-12-01T12:02:01.512Z,82.53
2022-12-01T12:05:13.435Z,82.62
2022-12-01T12:08:02.817Z,82.26
2022-12-01T12:10:32.080Z,81.64
2022-12-01T12:13:16.879Z,82.10
2022-12-01T12:16:33.450Z,81.86
2022-12-01T12:19:33.684Z,81.71
2022-12-01T12:22:25.556Z,81.56
2022-12-01T12:24:59.819Z,81.73
2022-12-01T12:27:43.878Z,81.72
2022-12-01T12:30:21.506Z,81.49
2022-12-01T12:33:19.921Z,80.66
2022-12-01T12:36:16.502Z,80.87
2022-12-01T12:39:17.274Z,81.22
2022-12-01T12:41:50.534Z,80.71
2022-12-01T12:44:39.518Z,80.18
2022-12-01T12:47:27.931Z,80.25
2022-12-01T12:50:21.829Z,80.16
2022-12-01T12:52:53.969Z,80.19
2022-12-01T12:55:30.600Z,80.17
2022-12-01T12:58:07.956Z,80.50
2022-12-01T13:00:42.813Z,80.82
2022-12-01T13:03:19.686Z,80.87
2022-12-01T13:06:10.061Z,80.77
2022-12-01T13:08:45.818Z,81.12
2022-12-01T13:11:27.037Z,80.38
2022-12-01T13:14:13.590Z,80.85
2022-12-01T13:16:46.854Z,80.59
2022-12-01T13:19:43.755Z,80.77
2022-12-01T13:22:13.794Z,80.81
2022-12-01T13:24:40.985Z,80.67
2022-12-01T13:27:10.566Z,80.34
2022-12-01T13:29:47.138Z,80.96
2022-12-01T13:32:41.179Z,80.69
2022-12-01T13:35:24.987Z,80.29
2022-12-01T13:37:51.753Z,80.34
2022-12-01T13:40:29.646Z,80.01
2022-12-01T13:43:10.800Z,80.61
2022-12-01T13:45:40.198Z,80.45
2022-12-01T13:48:27.197Z,80.81
2022-12-01T13:50:58.551Z,80.55
2022-12-01T13:53:30.292Z,80.16
2022-12-01T13:56:02.596Z,80.33
2022-12-01T13:58:35.883Z,79.90
2022-12-01T14:01:20.983Z,80.21
2022-12-01T14:04:03.010Z,80.03
2022-12-01T14:06:52.569Z,79.94
2022-12-01T14:09:31.685Z,79.61
2022-12-01T14:11:59.779Z,79.71
2022-12-01T14:14:32.920Z,79.79
2022-12-01T14:17:04.610Z,79.04
2022-12-01T14:19:36.899Z,79.44
2022-12-01T14:22:06.277Z,79.48
2022-12-01T14:24:51.241Z,79.65
2022-12-01T14:27:37.506Z,79.79
2022-12-01T14:30:42.186Z,80.13
2022-12-01T14:33:39.535Z,79.78
2022-12-01T14:36:22.981Z,79.69
2022-12-01T14:38:58.896Z,79.81
2022-12-01T14:41:29.850Z,79.53
2022-12-01T14:44:04.586Z,79.52
2022-12-01T14:46:45.430Z,79.66
2022-12-01T14:49:22.019Z,79.93
2022-12-01T14:51:54.293Z,79.34
2022-12-01T14:54:26.408Z,79.09
2022-12-01T14:56:56.855Z,78.81
2022-12-01T14:59:27.317Z,79.11
2022-12-01T15:01:58.253Z,79.28
2022-12-01T15:04:25.162Z,79.07
2022-12-01T15:06:56.948Z,79.24
2022-12-01T15:09:39.542Z,79.12
2022-12-01T15:12:09.650Z,79.19
2022-12-01T15:14:39.330Z,79.20
2022-12-01T15:17:08.905Z,79.64
2022-12-01T15:19:38.974Z,79.80
2022-12-01T15:22:17.284Z,79.66
2022-12-01T15:24:44.661Z,79.50
2022-12-01T15:27:29.180Z,79.53
2022-12-01T15:29:56.988Z,79.95
2022-12-01T15:32:25.145Z,80.25
2022-12-01T15:34:56.925Z,79.93
2022-12-01T15:37:27.483Z,79.92
2022-12-01T15:43:07.393Z,79.42
2022-12-01T15:46:00.766Z,79.42
2022-12-01T15:48:33.498Z,79.59
2022-12-01T15:51:02.181Z,79.08
2022-12-01T15:53:34.469Z,78.95
2022-12-01T15:56:04.676Z,79.58
2022-12-01T15:58:34.005Z,79.84
2022-12-01T16:01:05.564Z,80.01
2022-12-01T16:03:44.501Z,79.65
2022-12-01T16:06:12.729Z,79.53
2022-12-01T16:08:39.729Z,80.01
2022-12-01T16:11:14.626Z,80.08
2022-12-01T16:13:48.669Z,80.23
2022-12-01T16:16:30.259Z,79.87
2022-12-01T16:19:02.450Z,79.67
2022-12-01T16:21:33.602Z,80.32
2022-12-01T16:24:04.962Z,80.02
2022-12-01T16:26:33.688Z,79.72
2022-12-01T16:29:00.434Z,79.99
2022-12-01T16:31:27.368Z,79.79
2022-12-01T16:34:13.911Z,80.04
2022-12-01T16:36:49.585Z,79.87
2022-12-01T16:44:40.062Z,79.91
2022-12-01T16:47:24.133Z,80.02
2022-12-01T16:49:51.773Z,79.91
2022-12-01T16:52:43.821Z,80.14
2022-12-01T16:55:41.245Z,80.65
2022-12-01T17:06:06.699Z,80.07
2022-12-01T17:08:33.570Z,79.82
2022-12-01T17:11:00.248Z,80.29
2022-12-01T17:13:27.547Z,80.04
2022-12-01T17:15:55.134Z,80.07
2022-12-01T17:18:23.537Z,79.51
2022-12-01T17:21:16.464Z,79.51
2022-12-01T17:23:43.012Z,79.77
2022-12-01T17:26:13.687Z,80.04
2022-12-01T17:28:40.746Z,79.69
2022-12-01T17:31:08.621Z,79.84
2022-12-01T17:33:36.227Z,79.93
2022-12-01T17:36:06.119Z,79.92
2022-12-01T17:38:37.657Z,79.68
2022-12-01T17:44:32.453Z,79.16
2022-12-01T17:46:59.154Z,79.58
2022-12-01T17:49:28.086Z,79.51
2022-12-01T17:51:54.676Z,79.85
2022-12-01T17:54:21.286Z,79.67
2022-12-01T17:56:48.243Z,79.88
2022-12-01T17:59:15.387Z,79.63
2022-12-01T18:01:43.465Z,79.85
2022-12-01T18:04:13.287Z,79.37
2022-12-01T18:06:40.019Z,79.68
2022-12-01T18:09:07.241Z,79.68
2022-12-01T18:11:33.845Z,79.85
2022-12-01T18:14:00.550Z,79.77
2022-12-01T18:16:29.974Z,79.90
2022-12-01T18:18:58.159Z,80.10
2022-12-01T18:21:25.878Z,79.86
2022-12-01T18:23:58.613Z,79.73
2022-12-01T18:26:29.197Z,79.54
2022-12-01T18:29:01.943Z,78.70
2022-12-01T18:31:29.932Z,78.79
2022-12-01T18:34:04.541Z,77.84
2022-12-01T18:36:33.153Z,77.24
2022-12-01T18:39:01.266Z,77.50
2022-12-01T18:41:28.240Z,76.93
2022-12-01T18:43:54.854Z,76.59
2022-12-01T18:46:21.935Z,76.55
2022-12-01T18:49:02.133Z,76.64
2022-12-01T18:51:33.434Z,76.35
2022-12-01T18:54:01.396Z,76.63
2022-12-01T18:56:30.776Z,75.87
2022-12-01T18:59:03.186Z,75.70
2022-12-01T19:01:36.095Z,75.84
2022-12-01T19:04:03.880Z,75.84
2022-12-01T19:06:30.592Z,75.53
2022-12-01T19:09:00.202Z,73.84
2022-12-01T19:11:27.790Z,74.51
2022-12-01T19:13:56.044Z,74.51
2022-12-01T19:16:22.763Z,73.53
2022-12-01T19:18:49.810Z,73.60
2022-12-01T19:21:17.759Z,73.45
2022-12-01T19:23:45.285Z,73.45
2022-12-01T19:26:14.805Z,73.10
2022-12-01T19:28:42.320Z,72.97
2022-12-01T19:31:18.719Z,73.42
2022-12-01T19:33:45.786Z,73.69
2022-12-01T19:36:18.214Z,73.61
2022-12-01T19:38:45.455Z,73.21
2022-12-01T19:41:13.253Z,72.98
2022-12-01T19:43:40.509Z,73.15
2022-12-01T19:46:09.284Z,73.05
2022-12-01T19:48:36.586Z,73.00
2022-12-01T19:51:03.565Z,73.21
2022-12-01T19:53:33.655Z,72.89
2022-12-01T19:56:04.973Z,73.23
2022-12-01T19:58:34.591Z,73.47
2022-12-01T20:01:13.360Z,73.59
2022-12-01T20:03:41.156Z,73.17
2022-12-01T20:06:13.493Z,73.80
2022-12-01T20:08:40.792Z,74.29
2022-12-01T20:11:07.849Z,74.12
2022-12-01T20:13:36.555Z,74.11
2022-12-01T20:16:17.548Z,73.70
2022-12-01T20:18:44.893Z,74.03
2022-12-01T20:21:17.133Z,73.39
2022-12-01T20:23:45.703Z,73.76
2022-12-01T20:26:12.965Z,73.67
2022-12-01T20:28:40.187Z,74.13
2022-12-01T20:31:20.425Z,73.67
2022-12-01T20:33:47.610Z,73.96
2022-12-01T20:36:14.624Z,73.93
2022-12-01T20:38:41.656Z,73.88
2022-12-01T20:41:08.620Z,73.79
2022-12-01T20:43:35.706Z,73.88
2022-12-01T20:46:06.097Z,73.56
2022-12-01T20:48:33.468Z,73.51
2022-12-01T20:51:05.261Z,73.82
2022-12-01T20:53:32.317Z,73.59
2022-12-01T20:56:03.770Z,73.53
2022-12-01T20:58:34.590Z,73.33
2022-12-01T21:01:12.475Z,72.86
2022-12-01T21:03:41.069Z,73.03
2022-12-01T21:06:08.902Z,72.97
2022-12-01T21:08:43.047Z,72.40
2022-12-01T21:11:49.359Z,72.33
2022-12-01T21:14:22.269Z,71.93
2022-12-01T21:16:50.615Z,71.80
2022-12-01T21:19:37.336Z,72.08
2022-12-01T21:22:10.674Z,72.04
2022-12-01T21:24:43.343Z,72.01
2022-12-01T21:27:15.689Z,71.82
2022-12-01T21:29:46.212Z,71.99
2022-12-01T21:32:19.234Z,72.17
2022-12-01T21:34:48.003Z,71.85
2022-12-01T21:37:22.470Z,71.83
2022-12-01T21:39:51.212Z,71.74
2022-12-01T21:42:27.523Z,72.28
2022-12-01T21:44:56.313Z,72.34
2022-12-01T21:47:25.920Z,72.10
2022-12-01T21:49:57.419Z,72.62
2022-12-01T21:52:34.533Z,72.37
2022-12-01T21:55:22.651Z,72.24
2022-12-01T21:57:51.289Z,72.56
2022-12-01T22:00:33.198Z,72.27
2022-12-01T22:03:08.607Z,72.33
2022-12-01T22:05:41.109Z,72.32
2022-12-01T22:08:23.273Z,72.52
2022-12-01T22:10:49.717Z,72.15
2022-12-01T22:13:16.219Z,72.51
2022-12-01T22:15:42.900Z,72.41
2022-12-01T22:18:22.067Z,72.00
2022-12-01T22:20:48.666Z,71.93
2022-12-01T22:23:15.325Z,71.97
2022-12-01T22:25:42.484Z,72.01
2022-12-01T22:28:21.803Z,72.53
2022-12-01T22:30:48.713Z,72.50
2022-12-01T22:33:21.399Z,72.73
2022-12-01T22:35:52.579Z,72.67
2022-12-01T22:38:31.622Z,72.76
2022-12-01T22:41:02.792Z,72.33
2022-12-01T22:43:38.695Z,72.72
2022-12-01T22:46:22.170Z,73.05
2022-12-01T22:49:22.617Z,72.84
2022-12-01T22:52:06.674Z,72.78
2022-12-01T22:54:44.917Z,73.28
2022-12-01T22:57:26.635Z,72.67
2022-12-01T22:59:54.128Z,72.77
2022-12-01T23:02:29.438Z,72.88
2022-12-01T23:05:00.383Z,73.15
2022-12-01T23:07:33.252Z,73.19
2022-12-01T23:10:24.907Z,73.68
2022-12-01T23:12:54.567Z,73.16
2022-12-01T23:15:27.194Z,73.76
2022-12-01T23:17:53.747Z,74.24
2022-12-01T23:20:20.211Z,74.38
2022-12-01T23:22:52.350Z,74.48
2022-12-01T23:25:23.420Z,74.45
2022-12-01T23:27:52.771Z,74.53
2022-12-01T23:30:33.293Z,74.55
2022-12-01T23:33:08.613Z,74.39
2022-12-01T23:35:41.416Z,74.28
2022-12-01T23:38:15.886Z,74.13
2022-12-01T23:40:42.743Z,74.34
2022-12-01T23:43:18.419Z,74.24
2022-12-01T23:45:45.855Z,73.96
2022-12-01T23:48:20.477Z,74.52
2022-12-01T23:50:49.396Z,75.37
2022-12-01T23:53:25.536Z,74.95
2022-12-01T23:55:52.337Z,75.06
2022-12-01T23:58:19.141Z,75.10
